Celestial Wing — H9JT — position and weather

sailwx.info

Track history (hours):
 
Tides and Currents Weather Stations Pressure Air Temp Water Temp Dewpoint Dewpoint Depression Visibility Wind Speed Wind Dir Waves Ship Positions

Celestial Wing

Last reported at 2018-May-25 03:46 UTC. Time now 2018-May-25 05:30 UTC.
Position N 41°45' E 004°16'.

Length 180 m; beam 30 m.

Type: Cargo ship. MMSI: 356145000.

Date/timePositionNaut miles runAvg speedWind from/ knotsBaromVisibWave heightAir tempDewpointWater temp
2018-May-25 03:46N 41°45' E 004°16'8615.2
2018-May-24 22:07N 41°15' E 002°29'315.1
2018-May-24 21:56N 41°14' E 002°25'615.0
2018-May-24 21:31N 41°12' E 002°18'815.4
2018-May-24 21:01N 41°10' E 002°08'815.6
2018-May-24 20:31N 41°09' E 001°57'815.6
2018-May-24 20:00N 41°07' E 001°47'815.6
2018-May-24 19:30N 41°06' E 001°37'1115.5
2018-May-24 18:47N 41°04' E 001°23'514.7
2018-May-24 18:28N 41°03' E 001°16'3 7.5
2018-May-24 18:00N 41°05' E 001°13'15 0.7
2018-May-23 19:41N 40°57' E 001°30'415.7
2018-May-23 19:26N 40°55' E 001°34'2015.6
2018-May-23 18:09N 40°43' E 001°56'314.9
2018-May-23 17:56N 40°41' E 001°59'1015.1
2018-May-23 17:17N 40°36' E 002°10'915.2
2018-May-23 16:41N 40°31' E 002°20'1015.1
2018-May-23 16:00N 40°25' E 002°32'814.8
2018-May-23 15:30N 40°21' E 002°40'1114.9
2018-May-23 14:46N 40°16' E 002°52'415.4
2018-May-23 14:30N 40°13' E 002°57'7315.2
2018-May-23 09:43N 39°42' E 004°22'315.2
2018-May-23 09:30N 39°41' E 004°26'815.2
2018-May-23 09:00N 39°39' E 004°36'715.3
2018-May-23 08:30N 39°37' E 004°45'815.3
2018-May-23 07:58N 39°35' E 004°55'2515.2
2018-May-23 06:21N 39°27' E 005°26'715.3
2018-May-23 05:55N 39°26' E 005°34'  
2018-May-20 18:47N 36°58' E 023°26'1916.3
2018-May-20 17:39N 37°16' E 023°34'216.0
2018-May-20 17:30N 37°18' E 023°36'815.6
2018-May-20 17:00N 37°25' E 023°38'715.1
2018-May-20 16:30N 37°33' E 023°41'815.0
2018-May-20 16:00N 37°40' E 023°42'815.2
2018-May-20 15:30N 37°47' E 023°38'714.0
2018-May-20 15:00N 37°54' E 023°36'4 6.6
2018-May-20 14:27N 37°58' E 023°36'0 0.0
2018-May-20 14:00N 37°58' E 023°36'0 0.0
2018-May-20 13:30N 37°58' E 023°36'0 0.0
2018-May-20 13:00N 37°58' E 023°36'0 0.0
2018-May-20 12:30N 37°58' E 023°36'0 0.0
2018-May-20 12:00N 37°58' E 023°36'0 0.0
2018-May-20 11:30N 37°58' E 023°36'0 0.0
2018-May-20 11:00N 37°58' E 023°36'0 0.0
2018-May-20 10:30N 37°58' E 023°36'0 0.0
2018-May-20 10:00N 37°58' E 023°36'0 0.0
2018-May-20 09:30N 37°58' E 023°36'0 0.0
2018-May-20 09:00N 37°58' E 023°36'0 0.0
2018-May-20 08:30N 37°58' E 023°36'0 0.0
2018-May-20 08:00N 37°58' E 023°36'0 0.0
2018-May-20 07:30N 37°58' E 023°36'0 0.0
2018-May-20 07:00N 37°58' E 023°36'0 0.0
2018-May-20 06:30N 37°58' E 023°36'0 0.0
2018-May-20 06:00N 37°58' E 023°36'0 0.0
2018-May-20 05:30N 37°58' E 023°36'0 0.7
2018-May-20 05:00N 37°57' E 023°36'2 4.1
2018-May-20 04:30N 37°55' E 023°35'1 1.1
2018-May-20 04:00N 37°55' E 023°35'3 5.1
2018-May-20 03:30N 37°53' E 023°32'1 1.4
2018-May-20 03:00N 37°53' E 023°32'0 0.0
2018-May-20 02:30N 37°53' E 023°32'0 0.0
2018-May-20 02:00N 37°53' E 023°32'0 0.0
2018-May-20 01:30N 37°53' E 023°32'0 0.1
2018-May-20 01:00N 37°53' E 023°32'0 0.0
2018-May-20 00:30N 37°53' E 023°32'0 0.0
2018-May-20 00:00N 37°53' E 023°32'0 0.0
2018-May-19 23:30N 37°53' E 023°32'0 0.0
2018-May-19 23:00N 37°53' E 023°32'0 0.0
2018-May-19 22:30N 37°53' E 023°32'0 0.0
2018-May-19 22:00N 37°53' E 023°32'0 0.0
2018-May-19 21:30N 37°53' E 023°32'0 0.0
2018-May-19 21:00N 37°53' E 023°32'0 0.0
2018-May-19 20:30N 37°53' E 023°32'0 0.0
2018-May-19 20:00N 37°53' E 023°32'0 0.0
2018-May-19 19:30N 37°53' E 023°32'0 0.0
2018-May-19 19:00N 37°53' E 023°32'0 0.0
2018-May-19 18:30N 37°53' E 023°32'0 0.0
2018-May-19 18:00N 37°53' E 023°32'0 0.0
2018-May-19 17:30N 37°53' E 023°32'0 0.1
2018-May-19 17:00N 37°53' E 023°32'0 0.0
2018-May-19 16:30N 37°53' E 023°32'0 0.0
2018-May-19 16:00N 37°53' E 023°32'0 0.0
2018-May-19 15:30N 37°53' E 023°32'0 0.0
2018-May-19 15:00N 37°53' E 023°32'0 0.0
2018-May-19 14:30N 37°53' E 023°32'0 0.0
2018-May-19 14:00N 37°53' E 023°32'0 0.0
2018-May-19 13:30N 37°53' E 023°32'0 0.1
2018-May-19 13:00N 37°53' E 023°32'0 0.1
2018-May-19 12:30N 37°53' E 023°32'0 0.1
2018-May-19 12:00N 37°53' E 023°32'0 0.0
2018-May-19 11:30N 37°53' E 023°32'0 0.0
2018-May-19 11:00N 37°53' E 023°32'0 0.0
2018-May-19 10:30N 37°53' E 023°32'0 0.0
2018-May-19 10:00N 37°53' E 023°32'0 0.0
2018-May-19 09:30N 37°53' E 023°32'0 0.0
2018-May-19 09:00N 37°53' E 023°32'0 0.1
2018-May-19 08:30N 37°53' E 023°32'0 0.0
2018-May-19 08:00N 37°53' E 023°32'0 0.0
2018-May-19 07:30N 37°53' E 023°32'0 0.0
2018-May-19 07:00N 37°53' E 023°32'0 0.0
2018-May-19 06:30N 37°53' E 023°32'0 0.0
2018-May-19 06:00N 37°53' E 023°32'0 0.0
2018-May-19 05:30N 37°53' E 023°32'0 0.0
2018-May-19 05:00N 37°53' E 023°32'0 0.0
2018-May-19 04:30N 37°53' E 023°32'0 0.0
2018-May-19 04:00N 37°53' E 023°32'0 0.0
2018-May-19 03:30N 37°53' E 023°32'0 0.0
2018-May-19 03:00N 37°53' E 023°32'0 0.0
2018-May-19 02:30N 37°53' E 023°32'0 0.0
2018-May-19 02:00N 37°53' E 023°32'0 0.0
2018-May-19 01:30N 37°53' E 023°32'0 0.1
2018-May-19 01:00N 37°53' E 023°32'0 0.0
2018-May-19 00:30N 37°53' E 023°32'0 0.0
2018-May-19 00:00N 37°53' E 023°32'0 0.0
2018-May-18 23:30N 37°53' E 023°32'0 0.0
2018-May-18 23:00N 37°53' E 023°32'0 0.0
2018-May-18 22:30N 37°53' E 023°32'0 0.0
2018-May-18 22:00N 37°53' E 023°32'0 0.0
2018-May-18 21:30N 37°53' E 023°32'0 0.0
2018-May-18 21:00N 37°53' E 023°32'0 0.0
2018-May-18 20:30N 37°53' E 023°32'0 0.0
2018-May-18 20:00N 37°53' E 023°32'0 0.1
2018-May-18 19:30N 37°53' E 023°32'0 0.0
2018-May-18 19:00N 37°53' E 023°32'0 0.0
2018-May-18 18:30N 37°53' E 023°32'0 0.1
2018-May-18 18:00N 37°53' E 023°32'0 0.0
2018-May-18 17:30N 37°53' E 023°32'0 0.1
2018-May-18 17:00N 37°53' E 023°32'0 0.0
2018-May-18 16:30N 37°53' E 023°32'0 0.0
2018-May-18 16:00N 37°53' E 023°32'0 0.0
2018-May-18 15:30N 37°53' E 023°32'0 0.0
2018-May-18 15:00N 37°53' E 023°32'0 0.0
2018-May-18 14:30N 37°53' E 023°32'0 0.0
2018-May-18 14:00N 37°53' E 023°32'0 0.0
2018-May-18 13:30N 37°53' E 023°32'0 0.0
2018-May-18 13:00N 37°53' E 023°32'0 0.0
2018-May-18 12:30N 37°53' E 023°32'0 0.0
2018-May-18 12:00N 37°53' E 023°32'0 0.0
2018-May-18 11:30N 37°53' E 023°32'0 0.1
2018-May-18 11:00N 37°53' E 023°32'0 0.1
2018-May-18 10:30N 37°53' E 023°32'0 0.0
2018-May-18 10:00N 37°53' E 023°32'0 0.0
2018-May-18 09:30N 37°53' E 023°32'0 0.0
2018-May-18 09:00N 37°53' E 023°32'0 0.1
2018-May-18 08:30N 37°53' E 023°32'0 0.1
2018-May-18 08:00N 37°53' E 023°32'0 0.0
2018-May-18 07:30N 37°53' E 023°32'0 0.1
2018-May-18 07:00N 37°53' E 023°32'0 0.0
2018-May-18 06:30N 37°53' E 023°32'0 0.0
2018-May-18 06:01N 37°53' E 023°32'0 0.0
2018-May-18 05:30N 37°53' E 023°32'0 0.0
2018-May-18 05:00N 37°53' E 023°32'0 0.1
2018-May-18 04:30N 37°53' E 023°32'1 1.0
2018-May-18 04:00N 37°53' E 023°32'4 8.1
2018-May-18 03:30N 37°51' E 023°37'815.2
2018-May-18 03:00N 37°45' E 023°42'714.8
2018-May-18 02:30N 37°38' E 023°44'815.8
2018-May-18 02:00N 37°30' E 023°41'815.9
2018-May-18 01:30N 37°23' E 023°37'815.7
2018-May-18 01:00N 37°15' E 023°34'815.5
2018-May-18 00:30N 37°08' E 023°31'815.4
2018-May-18 00:00N 37°01' E 023°27'915.4
2018-May-17 23:24N 36°52' E 023°24'815.5
2018-May-17 22:53N 36°44' E 023°21'62214.2
2018-May-16 02:58N 44°14' E 013°56'1116.3
2018-May-16 02:19N 44°23' E 013°47'516.1
2018-May-16 02:00N 44°27' E 013°43'815.9
2018-May-16 01:30N 44°33' E 013°37'815.7
2018-May-16 01:00N 44°40' E 013°31'815.7
2018-May-16 00:30N 44°46' E 013°25'815.9
2018-May-16 00:00N 44°53' E 013°19'815.9
2018-May-15 23:30N 44°60' E 013°13'815.6
2018-May-15 23:00N 45°06' E 013°06'815.9
2018-May-15 22:30N 45°14' E 013°03'815.7
2018-May-15 22:00N 45°21' E 013°01'815.3
2018-May-15 21:30N 45°27' E 013°09'815.4
2018-May-15 21:00N 45°33' E 013°17'815.4
2018-May-15 20:30N 45°36' E 013°26'714.2
2018-May-15 20:01N 45°37' E 013°36'611.5
2018-May-15 19:30N 45°33' E 013°43'1 1.8
2018-May-15 19:00N 45°33' E 013°44'0 0.0
2018-May-15 18:30N 45°33' E 013°44'0 0.0
2018-May-15 18:00N 45°33' E 013°44'0 0.0
2018-May-15 17:30N 45°33' E 013°44'0 0.0
2018-May-15 17:00N 45°33' E 013°44'0 0.0
2018-May-15 16:27N 45°33' E 013°44'0 0.0
2018-May-15 16:00N 45°33' E 013°44'0 0.0
2018-May-15 15:30N 45°33' E 013°44'0 0.0
2018-May-15 15:00N 45°33' E 013°44'0 0.0
2018-May-15 14:30N 45°33' E 013°44'0 0.0
2018-May-15 14:00N 45°33' E 013°44'0 0.0
2018-May-15 13:24N 45°33' E 013°44'0 0.0
2018-May-15 12:51N 45°33' E 013°44'0 0.0
2018-May-15 12:30N 45°33' E 013°44'0 0.0
2018-May-15 11:57N 45°33' E 013°44'0 0.0
2018-May-15 11:27N 45°33' E 013°44'0 0.0
2018-May-15 10:57N 45°33' E 013°44'0 0.0
2018-May-15 10:27N 45°33' E 013°44'0 0.0
2018-May-15 09:57N 45°33' E 013°44'0 0.0
2018-May-15 09:30N 45°33' E 013°44'0 0.0
2018-May-15 08:54N 45°33' E 013°44'0 0.0
2018-May-15 08:30N 45°33' E 013°44'0 0.0
2018-May-15 07:57N 45°33' E 013°44'0 0.0
2018-May-15 07:30N 45°33' E 013°44'0 0.0
2018-May-15 06:57N 45°33' E 013°44'0 0.0
2018-May-15 06:30N 45°33' E 013°44'0 0.0
2018-May-15 05:57N 45°33' E 013°44'0 0.0
2018-May-15 05:27N 45°33' E 013°44'0 0.0
2018-May-15 05:00N 45°33' E 013°44'0 0.0
2018-May-15 04:30N 45°33' E 013°44'0 0.0
2018-May-15 04:00N 45°33' E 013°44'  
Track history (hours):
 
Tides and Currents Weather Stations Pressure Air Temp Water Temp Dewpoint Dewpoint Depression Visibility Wind Speed Wind Dir Waves Ship Positions

Celestial Wing

Last reported at 2018-May-25 03:46 UTC. Time now 2018-May-25 05:30 UTC.
Position N 41°45' E 004°16'.

Length 180 m; beam 30 m.

Type: Cargo ship. MMSI: 356145000.

Date/timePositionNaut miles runAvg speedWind from/ knotsBaromVisibWave heightAir tempDewpointWater temp
2018-May-25 03:46N 41°45' E 004°16'8615.2
2018-May-24 22:07N 41°15' E 002°29'315.1
2018-May-24 21:56N 41°14' E 002°25'615.0
2018-May-24 21:31N 41°12' E 002°18'815.4
2018-May-24 21:01N 41°10' E 002°08'815.6
2018-May-24 20:31N 41°09' E 001°57'815.6
2018-May-24 20:00N 41°07' E 001°47'815.6
2018-May-24 19:30N 41°06' E 001°37'1115.5
2018-May-24 18:47N 41°04' E 001°23'514.7
2018-May-24 18:28N 41°03' E 001°16'3 7.5
2018-May-24 18:00N 41°05' E 001°13'15 0.7
2018-May-23 19:41N 40°57' E 001°30'415.7
2018-May-23 19:26N 40°55' E 001°34'2015.6
2018-May-23 18:09N 40°43' E 001°56'314.9
2018-May-23 17:56N 40°41' E 001°59'1015.1
2018-May-23 17:17N 40°36' E 002°10'915.2
2018-May-23 16:41N 40°31' E 002°20'1015.1
2018-May-23 16:00N 40°25' E 002°32'814.8
2018-May-23 15:30N 40°21' E 002°40'1114.9
2018-May-23 14:46N 40°16' E 002°52'415.4
2018-May-23 14:30N 40°13' E 002°57'7315.2
2018-May-23 09:43N 39°42' E 004°22'315.2
2018-May-23 09:30N 39°41' E 004°26'815.2
2018-May-23 09:00N 39°39' E 004°36'715.3
2018-May-23 08:30N 39°37' E 004°45'815.3
2018-May-23 07:58N 39°35' E 004°55'2515.2
2018-May-23 06:21N 39°27' E 005°26'715.3
2018-May-23 05:55N 39°26' E 005°34'  
2018-May-20 18:47N 36°58' E 023°26'1916.3
2018-May-20 17:39N 37°16' E 023°34'216.0
2018-May-20 17:30N 37°18' E 023°36'815.6
2018-May-20 17:00N 37°25' E 023°38'715.1
2018-May-20 16:30N 37°33' E 023°41'815.0
2018-May-20 16:00N 37°40' E 023°42'815.2
2018-May-20 15:30N 37°47' E 023°38'714.0
2018-May-20 15:00N 37°54' E 023°36'4 6.6
2018-May-20 14:27N 37°58' E 023°36'0 0.0
2018-May-20 14:00N 37°58' E 023°36'0 0.0
2018-May-20 13:30N 37°58' E 023°36'0 0.0
2018-May-20 13:00N 37°58' E 023°36'0 0.0
2018-May-20 12:30N 37°58' E 023°36'0 0.0
2018-May-20 12:00N 37°58' E 023°36'0 0.0
2018-May-20 11:30N 37°58' E 023°36'0 0.0
2018-May-20 11:00N 37°58' E 023°36'0 0.0
2018-May-20 10:30N 37°58' E 023°36'0 0.0
2018-May-20 10:00N 37°58' E 023°36'0 0.0
2018-May-20 09:30N 37°58' E 023°36'0 0.0
2018-May-20 09:00N 37°58' E 023°36'0 0.0
2018-May-20 08:30N 37°58' E 023°36'0 0.0
2018-May-20 08:00N 37°58' E 023°36'0 0.0
2018-May-20 07:30N 37°58' E 023°36'0 0.0
2018-May-20 07:00N 37°58' E 023°36'0 0.0
2018-May-20 06:30N 37°58' E 023°36'0 0.0
2018-May-20 06:00N 37°58' E 023°36'0 0.0
2018-May-20 05:30N 37°58' E 023°36'0 0.7
2018-May-20 05:00N 37°57' E 023°36'2 4.1
2018-May-20 04:30N 37°55' E 023°35'1 1.1
2018-May-20 04:00N 37°55' E 023°35'3 5.1
2018-May-20 03:30N 37°53' E 023°32'1 1.4
2018-May-20 03:00N 37°53' E 023°32'0 0.0
2018-May-20 02:30N 37°53' E 023°32'0 0.0
2018-May-20 02:00N 37°53' E 023°32'0 0.0
2018-May-20 01:30N 37°53' E 023°32'0 0.1
2018-May-20 01:00N 37°53' E 023°32'0 0.0
2018-May-20 00:30N 37°53' E 023°32'0 0.0
2018-May-20 00:00N 37°53' E 023°32'0 0.0
2018-May-19 23:30N 37°53' E 023°32'0 0.0
2018-May-19 23:00N 37°53' E 023°32'0 0.0
2018-May-19 22:30N 37°53' E 023°32'0 0.0
2018-May-19 22:00N 37°53' E 023°32'0 0.0
2018-May-19 21:30N 37°53' E 023°32'0 0.0
2018-May-19 21:00N 37°53' E 023°32'0 0.0
2018-May-19 20:30N 37°53' E 023°32'0 0.0
2018-May-19 20:00N 37°53' E 023°32'0 0.0
2018-May-19 19:30N 37°53' E 023°32'0 0.0
2018-May-19 19:00N 37°53' E 023°32'0 0.0
2018-May-19 18:30N 37°53' E 023°32'0 0.0
2018-May-19 18:00N 37°53' E 023°32'0 0.0
2018-May-19 17:30N 37°53' E 023°32'0 0.1
2018-May-19 17:00N 37°53' E 023°32'0 0.0
2018-May-19 16:30N 37°53' E 023°32'0 0.0
2018-May-19 16:00N 37°53' E 023°32'0 0.0
2018-May-19 15:30N 37°53' E 023°32'0 0.0
2018-May-19 15:00N 37°53' E 023°32'0 0.0
2018-May-19 14:30N 37°53' E 023°32'0 0.0
2018-May-19 14:00N 37°53' E 023°32'0 0.0
2018-May-19 13:30N 37°53' E 023°32'0 0.1
2018-May-19 13:00N 37°53' E 023°32'0 0.1
2018-May-19 12:30N 37°53' E 023°32'0 0.1
2018-May-19 12:00N 37°53' E 023°32'0 0.0
2018-May-19 11:30N 37°53' E 023°32'0 0.0
2018-May-19 11:00N 37°53' E 023°32'0 0.0
2018-May-19 10:30N 37°53' E 023°32'0 0.0
2018-May-19 10:00N 37°53' E 023°32'0 0.0
2018-May-19 09:30N 37°53' E 023°32'0 0.0
2018-May-19 09:00N 37°53' E 023°32'0 0.1
2018-May-19 08:30N 37°53' E 023°32'0 0.0
2018-May-19 08:00N 37°53' E 023°32'0 0.0
2018-May-19 07:30N 37°53' E 023°32'0 0.0
2018-May-19 07:00N 37°53' E 023°32'0 0.0
2018-May-19 06:30N 37°53' E 023°32'0 0.0
2018-May-19 06:00N 37°53' E 023°32'0 0.0
2018-May-19 05:30N 37°53' E 023°32'0 0.0
2018-May-19 05:00N 37°53' E 023°32'0 0.0
2018-May-19 04:30N 37°53' E 023°32'0 0.0
2018-May-19 04:00N 37°53' E 023°32'0 0.0
2018-May-19 03:30N 37°53' E 023°32'0 0.0
2018-May-19 03:00N 37°53' E 023°32'0 0.0
2018-May-19 02:30N 37°53' E 023°32'0 0.0
2018-May-19 02:00N 37°53' E 023°32'0 0.0
2018-May-19 01:30N 37°53' E 023°32'0 0.1
2018-May-19 01:00N 37°53' E 023°32'0 0.0
2018-May-19 00:30N 37°53' E 023°32'0 0.0
2018-May-19 00:00N 37°53' E 023°32'0 0.0
2018-May-18 23:30N 37°53' E 023°32'0 0.0
2018-May-18 23:00N 37°53' E 023°32'0 0.0
2018-May-18 22:30N 37°53' E 023°32'0 0.0
2018-May-18 22:00N 37°53' E 023°32'0 0.0
2018-May-18 21:30N 37°53' E 023°32'0 0.0
2018-May-18 21:00N 37°53' E 023°32'0 0.0
2018-May-18 20:30N 37°53' E 023°32'0 0.0
2018-May-18 20:00N 37°53' E 023°32'0 0.1
2018-May-18 19:30N 37°53' E 023°32'0 0.0
2018-May-18 19:00N 37°53' E 023°32'0 0.0
2018-May-18 18:30N 37°53' E 023°32'0 0.1
2018-May-18 18:00N 37°53' E 023°32'0 0.0
2018-May-18 17:30N 37°53' E 023°32'0 0.1
2018-May-18 17:00N 37°53' E 023°32'0 0.0
2018-May-18 16:30N 37°53' E 023°32'0 0.0
2018-May-18 16:00N 37°53' E 023°32'0 0.0
2018-May-18 15:30N 37°53' E 023°32'0 0.0
2018-May-18 15:00N 37°53' E 023°32'0 0.0
2018-May-18 14:30N 37°53' E 023°32'0 0.0
2018-May-18 14:00N 37°53' E 023°32'0 0.0
2018-May-18 13:30N 37°53' E 023°32'0 0.0
2018-May-18 13:00N 37°53' E 023°32'0 0.0
2018-May-18 12:30N 37°53' E 023°32'0 0.0
2018-May-18 12:00N 37°53' E 023°32'0 0.0
2018-May-18 11:30N 37°53' E 023°32'0 0.1
2018-May-18 11:00N 37°53' E 023°32'0 0.1
2018-May-18 10:30N 37°53' E 023°32'0 0.0
2018-May-18 10:00N 37°53' E 023°32'0 0.0
2018-May-18 09:30N 37°53' E 023°32'0 0.0
2018-May-18 09:00N 37°53' E 023°32'0 0.1
2018-May-18 08:30N 37°53' E 023°32'0 0.1
2018-May-18 08:00N 37°53' E 023°32'0 0.0
2018-May-18 07:30N 37°53' E 023°32'0 0.1
2018-May-18 07:00N 37°53' E 023°32'0 0.0
2018-May-18 06:30N 37°53' E 023°32'0 0.0
2018-May-18 06:01N 37°53' E 023°32'0 0.0
2018-May-18 05:30N 37°53' E 023°32'0 0.0
2018-May-18 05:00N 37°53' E 023°32'0 0.1
2018-May-18 04:30N 37°53' E 023°32'1 1.0
2018-May-18 04:00N 37°53' E 023°32'4 8.1
2018-May-18 03:30N 37°51' E 023°37'815.2
2018-May-18 03:00N 37°45' E 023°42'714.8
2018-May-18 02:30N 37°38' E 023°44'815.8
2018-May-18 02:00N 37°30' E 023°41'815.9
2018-May-18 01:30N 37°23' E 023°37'815.7
2018-May-18 01:00N 37°15' E 023°34'815.5
2018-May-18 00:30N 37°08' E 023°31'815.4
2018-May-18 00:00N 37°01' E 023°27'915.4
2018-May-17 23:24N 36°52' E 023°24'815.5
2018-May-17 22:53N 36°44' E 023°21'62214.2
2018-May-16 02:58N 44°14' E 013°56'1116.3
2018-May-16 02:19N 44°23' E 013°47'516.1
2018-May-16 02:00N 44°27' E 013°43'815.9
2018-May-16 01:30N 44°33' E 013°37'815.7
2018-May-16 01:00N 44°40' E 013°31'815.7
2018-May-16 00:30N 44°46' E 013°25'815.9
2018-May-16 00:00N 44°53' E 013°19'815.9
2018-May-15 23:30N 44°60' E 013°13'815.6
2018-May-15 23:00N 45°06' E 013°06'815.9
2018-May-15 22:30N 45°14' E 013°03'815.7
2018-May-15 22:00N 45°21' E 013°01'815.3
2018-May-15 21:30N 45°27' E 013°09'815.4
2018-May-15 21:00N 45°33' E 013°17'815.4
2018-May-15 20:30N 45°36' E 013°26'714.2
2018-May-15 20:01N 45°37' E 013°36'611.5
2018-May-15 19:30N 45°33' E 013°43'1 1.8
2018-May-15 19:00N 45°33' E 013°44'0 0.0
2018-May-15 18:30N 45°33' E 013°44'0 0.0
2018-May-15 18:00N 45°33' E 013°44'0 0.0
2018-May-15 17:30N 45°33' E 013°44'0 0.0
2018-May-15 17:00N 45°33' E 013°44'0 0.0
2018-May-15 16:27N 45°33' E 013°44'0 0.0
2018-May-15 16:00N 45°33' E 013°44'0 0.0
2018-May-15 15:30N 45°33' E 013°44'0 0.0
2018-May-15 15:00N 45°33' E 013°44'0 0.0
2018-May-15 14:30N 45°33' E 013°44'0 0.0
2018-May-15 14:00N 45°33' E 013°44'0 0.0
2018-May-15 13:24N 45°33' E 013°44'0 0.0
2018-May-15 12:51N 45°33' E 013°44'0 0.0
2018-May-15 12:30N 45°33' E 013°44'0 0.0
2018-May-15 11:57N 45°33' E 013°44'0 0.0
2018-May-15 11:27N 45°33' E 013°44'0 0.0
2018-May-15 10:57N 45°33' E 013°44'0 0.0
2018-May-15 10:27N 45°33' E 013°44'0 0.0
2018-May-15 09:57N 45°33' E 013°44'0 0.0
2018-May-15 09:30N 45°33' E 013°44'0 0.0
2018-May-15 08:54N 45°33' E 013°44'0 0.0
2018-May-15 08:30N 45°33' E 013°44'0 0.0
2018-May-15 07:57N 45°33' E 013°44'0 0.0
2018-May-15 07:30N 45°33' E 013°44'0 0.0
2018-May-15 06:57N 45°33' E 013°44'0 0.0
2018-May-15 06:30N 45°33' E 013°44'0 0.0
2018-May-15 05:57N 45°33' E 013°44'0 0.0
2018-May-15 05:27N 45°33' E 013°44'0 0.0
2018-May-15 05:00N 45°33' E 013°44'0 0.0
2018-May-15 04:30N 45°33' E 013°44'0 0.0
2018-May-15 04:00N 45°33' E 013°44'  

Dump ship's entire track history